Weather History for KOXV - March, 2012

Change the Weather History Date:

Wednesday, March 7, 2012

  Actual Average Record
Temperature  
Mean Temperature 52 °F -  
Max Temperature 66 °F 45 °F 74 °F (1987)
Min Temperature 37 °F 24 °F 0 °F (1960)
Degree Days  
Heating Degree Days 14    
Growing Degree Days 2 (Base 50)    
Moisture  
Dew Point 42 °F    
Average Humidity 62    
Maximum Humidity 76    
Minimum Humidity 49    
Precipitation  
Precipitation 0.04 in - - ()
Sea Level Pressure  
Sea Level Pressure 29.75 in    
Wind  
Wind Speed 17 mph (SW)    
Max Wind Speed 25 mph    
Max Gust Speed 39 mph    
Visibility 10 miles    
Events Rain    
Averages and records for this station are not official NWS values.
T = Trace of Precipitation, MM = Missing Value Source: NWS Daily Summary

Daily Weather History Graph

Daily Weather History Graph

Search for Another Location

Airport or City:

Trip Planner

Search our weather history database for the weather conditions in past years. The results will help you decide how hot, cold, wet, or windy it might be!

Date:

Astronomy

Mar. 07, 2012 Rise Set
Actual Time 6:36 AM CST 6:10 PM CST
Civil Twilight 6:08 AM CST 6:38 PM CST
Nautical Twilight 5:37 AM CST 7:10 PM CST
Astronomical Twilight 5:04 AM CST 7:42 PM CST
Moon 5:48 PM CST (3/7) 5:47 AM CST (3/7)
Length of Visible Light 12h 29m
Length of Day
11h 34m
Waxing Gibbous, 99% of the Moon is Illuminated
Mar 7
Waxing Gibbous
Mar 8
Full
Mar 14
Last Quarter
Mar 22
New
Mar 30
First Quarter

Hourly Weather History & Observations

Time (CST) Temp. Windchill Dew Point Humidity Pressure Visibility Wind Dir Wind Speed Gust Speed Precip Events Conditions
12:15 AM 59.0 °F - 42.8 °F 55% 29.74 in 10.0 mi South 15.0 mph 21.9 mph N/A   Clear
12:55 AM 57.2 °F - 42.8 °F 59% 29.75 in 10.0 mi SSE 9.2 mph - N/A   Clear
1:15 AM 55.4 °F - 41.0 °F 58% 29.75 in 10.0 mi South 11.5 mph 17.3 mph N/A   Clear
1:35 AM 55.4 °F - 41.0 °F 58% 29.75 in 10.0 mi South 13.8 mph 18.4 mph N/A   Clear
1:55 AM 57.2 °F - 41.0 °F 55% 29.74 in 10.0 mi South 16.1 mph 25.3 mph N/A   Clear
2:15 AM 57.2 °F - 41.0 °F 55% 29.74 in 10.0 mi South 16.1 mph 21.9 mph N/A   Clear
2:35 AM 57.2 °F - 41.0 °F 55% 29.73 in 10.0 mi South 18.4 mph 25.3 mph N/A   Clear
2:55 AM 57.2 °F - 42.8 °F 59% 29.72 in 10.0 mi South 18.4 mph 26.5 mph N/A   Clear
3:15 AM 57.2 °F - 42.8 °F 59% 29.72 in 10.0 mi South 18.4 mph 21.9 mph N/A   Clear
3:35 AM 57.2 °F - 42.8 °F 59% 29.71 in 10.0 mi South 21.9 mph 25.3 mph N/A   Clear
3:55 AM 55.4 °F - 42.8 °F 63% 29.71 in 10.0 mi South 15.0 mph - N/A   Clear
4:15 AM 55.4 °F - 41.0 °F 58% 29.70 in 10.0 mi South 20.7 mph 26.5 mph N/A   Clear
4:35 AM 55.4 °F - 41.0 °F 58% 29.70 in 10.0 mi South 18.4 mph 26.5 mph N/A   Clear
4:55 AM 55.4 °F - 41.0 °F 58% 29.70 in 10.0 mi South 21.9 mph 28.8 mph N/A   Clear
5:15 AM 55.4 °F - 41.0 °F 58% 29.70 in 10.0 mi South 20.7 mph 27.6 mph N/A   Clear
5:35 AM 55.4 °F - 42.8 °F 63% 29.69 in 10.0 mi South 19.6 mph 29.9 mph N/A   Clear
6:35 AM 57.2 °F - 42.8 °F 59% 29.69 in 10.0 mi South 23.0 mph 32.2 mph N/A   Clear
6:55 AM 55.4 °F - 42.8 °F 63% 29.69 in 10.0 mi South 23.0 mph 33.4 mph N/A   Clear
7:15 AM 57.2 °F - 42.8 °F 59% 29.69 in 10.0 mi South 24.2 mph 29.9 mph N/A   Clear
7:35 AM 57.2 °F - 44.6 °F 63% 29.71 in 10.0 mi SSW 15.0 mph 24.2 mph N/A   Scattered Clouds
7:55 AM 57.2 °F - 44.6 °F 63% 29.73 in 10.0 mi South 13.8 mph 23.0 mph N/A   Overcast
8:15 AM 59.0 °F - 44.6 °F 59% 29.73 in 10.0 mi South 15.0 mph 26.5 mph N/A   Overcast
8:35 AM 59.0 °F - 44.6 °F 59% 29.73 in 10.0 mi South 17.3 mph 28.8 mph N/A   Overcast
8:55 AM 60.8 °F - 44.6 °F 55% 29.73 in 10.0 mi South 19.6 mph 26.5 mph N/A   Overcast
9:15 AM 60.8 °F - 44.6 °F 55% 29.73 in 10.0 mi SSW 20.7 mph 27.6 mph N/A   Overcast
9:35 AM 62.6 °F - 46.4 °F 55% 29.72 in 10.0 mi South 21.9 mph 29.9 mph N/A   Overcast
9:55 AM 62.6 °F - 46.4 °F 55% 29.72 in 10.0 mi South 20.7 mph 34.5 mph N/A   Mostly Cloudy
10:15 AM 64.4 °F - 46.4 °F 52% 29.72 in 10.0 mi SSW 23.0 mph 34.5 mph N/A   Scattered Clouds
10:35 AM 64.4 °F - 46.4 °F 52% 29.72 in 10.0 mi SSW 21.9 mph 34.5 mph N/A   Scattered Clouds
10:55 AM 66.2 °F - 46.4 °F 49% 29.71 in 10.0 mi SSW 25.3 mph 35.7 mph N/A   Mostly Cloudy
11:15 AM 66.2 °F - 46.4 °F 49% 29.71 in 10.0 mi SW 24.2 mph 36.8 mph N/A   Overcast
11:35 AM 66.2 °F - 48.2 °F 52% 29.71 in 10.0 mi SSW 24.2 mph 38.0 mph N/A   Overcast
11:55 AM 66.2 °F - 48.2 °F 52% 29.71 in 10.0 mi SSW 25.3 mph 39.1 mph N/A   Overcast
12:15 PM 66.2 °F - 48.2 °F 52% 29.71 in 10.0 mi SSW 25.3 mph 36.8 mph N/A   Overcast
12:35 PM 64.4 °F - 48.2 °F 56% 29.71 in 10.0 mi SSW 17.3 mph 28.8 mph N/A   Overcast
12:55 PM 64.4 °F - 48.2 °F 56% 29.70 in 10.0 mi SSW 19.6 mph 28.8 mph N/A   Overcast
1:15 PM 66.2 °F - 48.2 °F 52% 29.70 in 10.0 mi SSW 18.4 mph 27.6 mph N/A   Overcast
1:35 PM 66.2 °F - 48.2 °F 52% 29.69 in 10.0 mi SSW 18.4 mph 28.8 mph N/A   Overcast
1:55 PM 66.2 °F - 48.2 °F 52% 29.69 in 10.0 mi SSW 20.7 mph 33.4 mph N/A   Overcast
2:15 PM 66.2 °F - 48.2 °F 52% 29.69 in 10.0 mi SSW 20.7 mph 31.1 mph N/A   Overcast
2:35 PM 66.2 °F - 48.2 °F 52% 29.70 in 10.0 mi SW 20.7 mph 32.2 mph N/A   Overcast
2:55 PM 57.2 °F - 46.4 °F 67% 29.73 in 7.0 mi WNW 18.4 mph 34.5 mph N/A Rain Rain
3:15 PM 50.0 °F - 42.8 °F 76% 29.75 in 7.0 mi WNW 17.3 mph 21.9 mph N/A   Drizzle
3:35 PM 48.2 °F - 41.0 °F 76% 29.77 in 7.0 mi WNW 15.0 mph 23.0 mph N/A Rain Light Rain
3:55 PM 46.4 °F 40.1 °F 39.2 °F 76% 29.78 in 7.0 mi NW 15.0 mph 21.9 mph N/A   Overcast
4:15 PM 46.4 °F 39.8 °F 37.4 °F 71% 29.78 in 7.0 mi WNW 16.1 mph - N/A   Overcast
4:35 PM 44.6 °F 37.8 °F 37.4 °F 76% 29.78 in 10.0 mi NW 15.0 mph 24.2 mph N/A   Overcast
4:55 PM 44.6 °F 38.1 °F 35.6 °F 71% 29.80 in 10.0 mi West 13.8 mph - N/A   Overcast
5:15 PM 42.8 °F 35.8 °F 35.6 °F 76% 29.80 in 10.0 mi WNW 13.8 mph - N/A   Overcast
5:35 PM 42.8 °F 37.5 °F 35.6 °F 76% 29.81 in 10.0 mi WNW 9.2 mph - N/A   Overcast
5:55 PM 42.8 °F 36.2 °F 35.6 °F 76% 29.82 in 10.0 mi WNW 12.7 mph - N/A   Overcast
6:15 PM 42.8 °F 35.8 °F 33.8 °F 70% 29.84 in 10.0 mi WNW 13.8 mph 18.4 mph N/A   Overcast
6:35 PM 41.0 °F 32.5 °F 33.8 °F 76% 29.85 in 10.0 mi NW 17.3 mph 23.0 mph N/A   Overcast
6:55 PM 39.2 °F 31.2 °F 32.0 °F 75% 29.85 in 10.0 mi NW 13.8 mph - N/A   Overcast
7:15 PM 39.2 °F 31.6 °F 30.2 °F 70% 29.87 in 10.0 mi NW 12.7 mph 18.4 mph N/A   Light Drizzle
7:35 PM 37.4 °F 28.9 °F 30.2 °F 75% 29.87 in 7.0 mi NW 13.8 mph 17.3 mph N/A Rain Light Rain
7:55 PM 37.4 °F 29.8 °F 30.2 °F 75% 29.88 in 5.0 mi NNW 11.5 mph 16.1 mph 0.02 in Rain Rain
8:15 PM 37.4 °F 29.3 °F 30.2 °F 75% 29.90 in 5.0 mi NW 12.7 mph 18.4 mph 0.01 in Rain Rain
8:35 PM 37.4 °F 30.3 °F 30.2 °F 75% 29.90 in 10.0 mi NW 10.4 mph - 0.01 in Rain Light Rain
8:55 PM 37.4 °F 28.9 °F 30.2 °F 75% 29.93 in 10.0 mi NW 13.8 mph 18.4 mph 0.02 in Rain Light Rain
9:15 PM 35.6 °F 28.0 °F 30.2 °F 81% 29.95 in 3.0 mi WNW 10.4 mph 20.7 mph 0.02 in Rain Heavy Rain
9:35 PM 35.6 °F 28.6 °F 30.2 °F 81% 29.96 in 4.0 mi NW 9.2 mph 17.3 mph 0.04 in Rain Rain
9:55 PM 35.6 °F 25.9 °F 28.4 °F 75% 29.96 in 5.0 mi NW 16.1 mph 21.9 mph 0.05 in Rain Light Rain
10:15 PM 35.6 °F 27.1 °F 28.4 °F 75% 29.97 in 7.0 mi NW 12.7 mph 21.9 mph 0.01 in   Overcast
10:35 PM 35.6 °F 27.1 °F 28.4 °F 75% 29.98 in 10.0 mi NW 12.7 mph 17.3 mph 0.01 in   Overcast
11:35 PM 33.8 °F 22.5 °F 26.6 °F 75% 30.00 in 10.0 mi NW 19.6 mph 28.8 mph N/A   Overcast
11:55 PM 33.8 °F 23.5 °F 24.8 °F 70% 30.02 in 10.0 mi NW 16.1 mph 25.3 mph N/A   Overcast